createdAt,value
2018-05-02T00:00:07.750Z,85.02
2018-05-02T00:01:07.735Z,85.30
2018-05-02T00:02:07.712Z,85.02
2018-05-02T00:03:07.689Z,85.02
2018-05-02T00:04:07.672Z,84.83
2018-05-02T00:05:07.650Z,85.21
2018-05-02T00:06:07.637Z,85.30
2018-05-02T00:07:07.608Z,85.40
2018-05-02T00:08:07.589Z,85.40
2018-05-02T00:09:07.571Z,84.45
2018-05-02T00:10:07.547Z,85.21
2018-05-02T00:11:07.536Z,84.64
2018-05-02T00:12:07.505Z,84.26
2018-05-02T00:13:07.486Z,84.36
2018-05-02T00:14:07.468Z,84.17
2018-05-02T00:15:07.445Z,84.26
2018-05-02T00:16:07.430Z,84.36
2018-05-02T00:17:07.411Z,84.45
2018-05-02T00:18:07.413Z,84.26
2018-05-02T00:19:07.363Z,83.97
2018-05-02T00:20:07.344Z,83.59
2018-05-02T00:21:07.325Z,83.12
2018-05-02T00:22:07.308Z,83.88
2018-05-02T00:23:07.287Z,83.97
2018-05-02T00:24:07.263Z,83.12
2018-05-02T00:25:07.243Z,83.40
2018-05-02T00:26:07.227Z,83.03
2018-05-02T00:27:07.201Z,83.31
2018-05-02T00:28:07.182Z,83.59
2018-05-02T00:29:07.161Z,83.03
2018-05-02T00:30:07.140Z,83.59
2018-05-02T00:31:07.119Z,84.45
2018-05-02T00:32:07.099Z,84.36
2018-05-02T00:33:07.080Z,84.17
2018-05-02T00:34:07.216Z,83.78
2018-05-02T00:35:07.038Z,83.40
2018-05-02T00:36:07.028Z,82.93
2018-05-02T00:37:07.001Z,83.50
2018-05-02T00:38:06.981Z,82.93
2018-05-02T00:39:06.958Z,83.03
2018-05-02T00:40:06.935Z,83.03
2018-05-02T00:41:06.916Z,83.97
2018-05-02T00:42:06.895Z,83.97
2018-05-02T00:43:06.881Z,84.17
2018-05-02T00:44:06.854Z,84.22
2018-05-02T00:45:06.835Z,84.36
2018-05-02T00:46:06.813Z,84.36
2018-05-02T00:47:06.792Z,84.31
2018-05-02T00:48:06.775Z,84.12
2018-05-02T00:49:06.755Z,84.31
2018-05-02T00:50:06.738Z,84.12
2018-05-02T00:51:06.713Z,84.22
2018-05-02T00:52:06.691Z,83.74
2018-05-02T00:53:06.672Z,83.74
2018-05-02T00:54:06.650Z,83.74
2018-05-02T00:55:06.631Z,82.89
2018-05-02T00:56:06.612Z,83.12
2018-05-02T00:57:06.590Z,83.74
2018-05-02T00:58:06.567Z,83.55
2018-05-02T00:59:06.548Z,83.84
2018-05-02T01:00:06.528Z,82.98
2018-05-02T01:01:06.512Z,82.42
2018-05-02T01:02:06.490Z,83.17
2018-05-02T01:03:06.465Z,83.55
2018-05-02T01:04:06.448Z,84.22
2018-05-02T01:05:06.426Z,84.88
2018-05-02T01:06:06.403Z,85.07
2018-05-02T01:07:06.385Z,85.07
2018-05-02T01:08:06.362Z,85.17
2018-05-02T01:09:06.344Z,84.12
2018-05-02T01:10:06.322Z,84.22
2018-05-02T01:11:06.310Z,84.98
2018-05-02T01:12:06.281Z,85.74
2018-05-02T01:13:06.260Z,85.74
2018-05-02T01:14:06.237Z,86.49
2018-05-02T01:15:06.223Z,87.25
2018-05-02T01:16:06.199Z,87.25
2018-05-02T01:17:06.180Z,88.01
2018-05-02T01:18:06.159Z,88.68
2018-05-02T01:19:06.136Z,89.43
2018-05-02T01:20:06.125Z,88.58
2018-05-02T01:21:06.096Z,88.54
2018-05-02T01:22:06.074Z,88.63
2018-05-02T01:23:06.053Z,88.63
2018-05-02T01:24:06.037Z,88.68
2018-05-02T01:25:06.013Z,88.68
2018-05-02T01:26:05.991Z,88.20
2018-05-02T01:27:05.970Z,88.87
2018-05-02T01:28:05.951Z,87.54
2018-05-02T01:29:05.930Z,87.06
2018-05-02T01:30:05.917Z,87.16
2018-05-02T01:31:05.892Z,87.06
2018-05-02T01:32:05.866Z,86.87
2018-05-02T01:33:05.850Z,87.54
2018-05-02T01:34:05.825Z,88.10
2018-05-02T01:35:05.806Z,87.77
2018-05-02T01:36:05.784Z,87.45
2018-05-02T01:37:05.763Z,87.54
2018-05-02T01:38:05.746Z,87.06
2018-05-02T01:39:05.720Z,86.68
2018-05-02T01:40:05.702Z,86.59
2018-05-02T01:41:05.680Z,86.45
2018-05-02T01:42:05.659Z,86.26
2018-05-02T01:43:05.638Z,87.06
2018-05-02T01:44:05.621Z,86.64
2018-05-02T01:45:05.599Z,86.68
2018-05-02T01:46:05.575Z,86.68
2018-05-02T01:47:05.556Z,86.97
2018-05-02T01:48:05.538Z,87.63
2018-05-02T01:49:05.513Z,87.16
2018-05-02T01:50:05.491Z,87.49
2018-05-02T01:51:05.475Z,87.68
2018-05-02T01:52:05.451Z,88.06
2018-05-02T01:53:05.434Z,88.54
2018-05-02T01:54:05.408Z,88.82
2018-05-02T01:55:05.388Z,89.01
2018-05-02T01:56:05.367Z,88.92
2018-05-02T01:57:05.348Z,89.48
2018-05-02T01:58:05.324Z,89.01
2018-05-02T01:59:05.305Z,89.86
2018-05-02T02:00:05.286Z,90.05
2018-05-02T02:01:05.263Z,89.58
2018-05-02T02:02:05.242Z,89.58
2018-05-02T02:03:05.223Z,88.82
2018-05-02T02:04:05.207Z,87.87
2018-05-02T02:05:05.181Z,88.35
2018-05-02T02:06:05.159Z,88.35
2018-05-02T02:07:05.139Z,88.82
2018-05-02T02:08:05.118Z,88.16
2018-05-02T02:09:05.099Z,88.54
2018-05-02T02:10:05.075Z,88.35
2018-05-02T02:11:05.054Z,88.73
2018-05-02T02:12:05.035Z,88.73
2018-05-02T02:13:05.012Z,88.82
2018-05-02T02:14:04.994Z,88.35
2018-05-02T02:15:04.970Z,88.25
2018-05-02T02:16:04.949Z,88.06
2018-05-02T02:17:04.930Z,87.68
2018-05-02T02:18:04.910Z,87.40
2018-05-02T02:19:04.886Z,87.02
2018-05-02T02:20:04.870Z,86.78
2018-05-02T02:21:04.843Z,86.78
2018-05-02T02:22:04.822Z,85.93
2018-05-02T02:23:04.805Z,85.93
2018-05-02T02:24:04.781Z,86.02
2018-05-02T02:25:04.761Z,85.55
2018-05-02T02:26:04.741Z,85.36
2018-05-02T02:27:04.719Z,85.93
2018-05-02T02:28:04.699Z,85.97
2018-05-02T02:29:04.678Z,84.84
2018-05-02T02:30:04.655Z,85.69
2018-05-02T02:31:04.635Z,86.74
2018-05-02T02:32:04.614Z,86.64
2018-05-02T02:33:04.595Z,86.64
2018-05-02T02:34:04.663Z,86.45
2018-05-02T02:35:04.550Z,86.55
2018-05-02T02:36:04.533Z,86.45
2018-05-02T02:37:04.512Z,86.16
2018-05-02T02:38:04.489Z,85.50
2018-05-02T02:39:04.472Z,86.07
2018-05-02T02:40:04.453Z,85.78
2018-05-02T02:41:04.426Z,85.97
2018-05-02T02:42:04.405Z,85.97
2018-05-02T02:43:04.387Z,86.45
2018-05-02T02:44:04.367Z,86.64
2018-05-02T02:45:04.342Z,87.02
2018-05-02T02:46:04.322Z,86.55
2018-05-02T02:47:04.308Z,86.83
2018-05-02T02:48:04.281Z,86.26
2018-05-02T02:49:04.259Z,85.97
2018-05-02T02:50:04.237Z,85.97
2018-05-02T02:51:04.219Z,85.78
2018-05-02T02:52:04.196Z,86.16
2018-05-02T02:53:04.174Z,86.55
2018-05-02T02:54:04.153Z,87.77
2018-05-02T02:55:04.131Z,87.59
2018-05-02T02:56:04.111Z,87.68
2018-05-02T02:57:04.090Z,87.77
2018-05-02T02:58:04.069Z,88.06
2018-05-02T02:59:04.051Z,87.83
2018-05-02T03:00:04.027Z,88.59
2018-05-02T03:01:04.007Z,89.15
2018-05-02T03:02:03.983Z,89.63
2018-05-02T03:03:03.963Z,90.48
2018-05-02T03:04:03.943Z,90.58
2018-05-02T03:05:03.920Z,90.48
2018-05-02T03:06:03.909Z,90.29
2018-05-02T03:07:03.878Z,90.20
2018-05-02T03:08:03.857Z,90.86
2018-05-02T03:09:03.837Z,90.48
2018-05-02T03:10:03.821Z,90.86
2018-05-02T03:11:03.801Z,90.20
2018-05-02T03:12:03.774Z,90.58
2018-05-02T03:13:03.758Z,90.48
2018-05-02T03:14:03.730Z,90.29
2018-05-02T03:15:03.710Z,90.20
2018-05-02T03:16:03.687Z,90.86
2018-05-02T03:17:03.673Z,90.77
2018-05-02T03:18:03.650Z,90.77
2018-05-02T03:19:03.624Z,90.67
2018-05-02T03:20:03.609Z,91.05
2018-05-02T03:21:03.583Z,91.05
2018-05-02T03:22:03.562Z,90.95
2018-05-02T03:23:03.540Z,90.86
2018-05-02T03:24:03.519Z,90.67
2018-05-02T03:25:03.504Z,91.24
2018-05-02T03:26:03.479Z,91.24
2018-05-02T03:27:03.519Z,90.58
2018-05-02T03:28:03.432Z,90.58
2018-05-02T03:29:03.409Z,90.39
2018-05-02T03:30:03.387Z,90.67
2018-05-02T03:31:03.365Z,90.67
2018-05-02T03:32:03.349Z,90.86
2018-05-02T03:33:03.326Z,90.58
2018-05-02T03:34:03.300Z,90.39
2018-05-02T03:35:03.282Z,90.67
2018-05-02T03:36:03.257Z,90.67
2018-05-02T03:37:03.236Z,91.05
2018-05-02T03:38:03.213Z,90.67
2018-05-02T03:39:03.194Z,90.29
2018-05-02T03:40:03.173Z,90.20
2018-05-02T03:41:03.153Z,90.29
2018-05-02T03:42:03.131Z,90.20
2018-05-02T03:43:03.107Z,90.95
2018-05-02T03:44:03.089Z,91.14
2018-05-02T03:45:03.068Z,90.81
2018-05-02T03:46:03.042Z,90.34
2018-05-02T03:47:03.023Z,90.34
2018-05-02T03:48:03.002Z,89.96
2018-05-02T03:49:02.984Z,90.39
2018-05-02T03:50:02.960Z,90.72
2018-05-02T03:51:02.938Z,90.20
2018-05-02T03:52:02.915Z,90.81
2018-05-02T03:53:02.954Z,90.01
2018-05-02T03:54:02.872Z,90.72
2018-05-02T03:55:02.852Z,90.62
2018-05-02T03:56:02.882Z,90.81
2018-05-02T03:57:02.809Z,90.91
2018-05-02T03:58:02.788Z,90.81
2018-05-02T03:59:02.770Z,90.91
2018-05-02T04:00:02.744Z,90.91
2018-05-02T04:01:02.722Z,90.81
2018-05-02T04:02:02.701Z,90.81
2018-05-02T04:03:02.678Z,89.96
2018-05-02T04:04:02.660Z,89.86
2018-05-02T04:05:02.642Z,89.11
2018-05-02T04:06:02.617Z,89.77
2018-05-02T04:07:02.593Z,89.01
2018-05-02T04:08:02.573Z,88.16
2018-05-02T04:09:02.553Z,87.68
2018-05-02T04:10:02.530Z,88.54
2018-05-02T04:11:02.512Z,88.54
2018-05-02T04:12:02.488Z,89.29
2018-05-02T04:13:02.471Z,89.29
2018-05-02T04:14:02.448Z,89.86
2018-05-02T04:15:31.145Z,90.05
2018-05-02T04:16:31.118Z,89.86
2018-05-02T04:17:31.098Z,89.86
2018-05-02T04:18:31.077Z,89.58
2018-05-02T04:19:31.053Z,89.67
2018-05-02T04:20:31.033Z,90.24
2018-05-02T04:21:31.011Z,90.24
2018-05-02T04:22:30.995Z,90.53
2018-05-02T04:23:30.969Z,90.24
2018-05-02T04:24:30.954Z,90.34
2018-05-02T04:25:30.927Z,90.62
2018-05-02T04:26:30.907Z,90.34
2018-05-02T04:27:30.887Z,90.81
2018-05-02T04:28:30.866Z,90.53
2018-05-02T04:29:30.841Z,90.81
2018-05-02T04:30:30.820Z,91.19
2018-05-02T04:31:30.798Z,90.62
2018-05-02T04:32:30.779Z,91.66
2018-05-02T04:33:30.759Z,91.57
2018-05-02T04:34:30.747Z,92.33
2018-05-02T04:35:30.714Z,92.42
2018-05-02T04:36:30.697Z,92.04
2018-05-02T04:37:30.675Z,92.52
2018-05-02T04:38:30.653Z,92.33
2018-05-02T04:39:30.629Z,92.99
2018-05-02T04:40:30.611Z,92.66
2018-05-02T04:41:30.590Z,92.76
2018-05-02T04:42:30.566Z,92.66
2018-05-02T04:43:30.547Z,92.94
2018-05-02T04:44:30.531Z,92.94
2018-05-02T04:45:30.504Z,92.18
2018-05-02T04:46:30.482Z,92.38
2018-05-02T04:47:30.463Z,92.38
2018-05-02T04:48:30.441Z,91.99
2018-05-02T04:49:30.422Z,92.57
2018-05-02T04:50:30.405Z,91.99
2018-05-02T04:51:30.375Z,92.18
2018-05-02T04:52:30.353Z,92.66
2018-05-02T04:53:30.337Z,92.18
2018-05-02T04:54:30.313Z,93.04
2018-05-02T04:55:30.296Z,93.41
2018-05-02T04:56:30.272Z,93.23
2018-05-02T04:57:30.251Z,93.51
2018-05-02T04:58:30.227Z,93.23
2018-05-02T04:59:30.244Z,93.04
2018-05-02T05:00:30.185Z,92.85
2018-05-02T05:01:30.165Z,92.28
2018-05-02T05:02:30.145Z,92.18
2018-05-02T05:03:30.121Z,92.28
2018-05-02T05:04:30.099Z,92.28
2018-05-02T05:05:30.079Z,92.38
2018-05-02T05:06:30.064Z,92.57
2018-05-02T05:07:30.041Z,92.47
2018-05-02T05:08:30.017Z,92.18
2018-05-02T05:09:29.996Z,92.28
2018-05-02T05:10:29.977Z,92.99
2018-05-02T05:11:29.952Z,93.08
2018-05-02T05:12:29.932Z,92.33
2018-05-02T05:13:29.912Z,92.61
2018-05-02T05:14:29.915Z,92.61
2018-05-02T05:15:29.867Z,92.52
2018-05-02T05:16:29.850Z,92.52
2018-05-02T05:17:29.827Z,92.33
2018-05-02T05:18:29.815Z,92.14
2018-05-02T05:19:29.786Z,92.04
2018-05-02T05:20:29.768Z,92.61
2018-05-02T05:21:29.745Z,92.71
2018-05-02T05:22:29.723Z,92.23
2018-05-02T05:23:29.701Z,92.71
2018-05-02T05:24:29.681Z,92.33
2018-05-02T05:25:29.662Z,91.80
2018-05-02T05:26:29.640Z,90.85
2018-05-02T05:27:29.620Z,91.14
2018-05-02T05:28:29.598Z,91.24
2018-05-02T05:29:29.586Z,91.33
2018-05-02T05:30:29.562Z,90.95
2018-05-02T05:31:29.538Z,90.28
2018-05-02T05:32:29.516Z,89.95
2018-05-02T05:33:29.499Z,89.19
2018-05-02T05:34:29.476Z,89.57
2018-05-02T05:35:29.454Z,88.71
2018-05-02T05:36:29.436Z,88.34
2018-05-02T05:37:29.414Z,88.53
2018-05-02T05:38:29.394Z,87.90
2018-05-02T05:39:29.373Z,87.62
2018-05-02T05:40:29.354Z,87.24
2018-05-02T05:41:29.333Z,86.76
2018-05-02T05:42:29.316Z,86.95
2018-05-02T05:43:29.294Z,86.90
2018-05-02T05:44:29.277Z,86.14
2018-05-02T05:45:29.253Z,86.24
2018-05-02T05:46:29.235Z,85.66
2018-05-02T05:47:29.262Z,85.57
2018-05-02T05:48:29.192Z,85.00
2018-05-02T05:49:29.185Z,85.76
2018-05-02T05:50:29.156Z,85.19
2018-05-02T05:51:29.133Z,83.00
2018-05-02T05:52:29.118Z,82.76
2018-05-02T05:53:29.093Z,81.77
2018-05-02T05:54:29.195Z,82.67
2018-05-02T05:55:29.053Z,83.23
2018-05-02T05:56:29.034Z,83.23
2018-05-02T05:57:29.023Z,83.33
2018-05-02T05:58:28.995Z,83.42
2018-05-02T05:59:28.978Z,83.33
2018-05-02T06:00:28.959Z,82.95
2018-05-02T06:01:28.939Z,83.14
2018-05-02T06:02:28.923Z,83.33
2018-05-02T06:03:28.901Z,83.14
2018-05-02T06:04:28.884Z,82.61
2018-05-02T06:05:28.861Z,82.04
2018-05-02T06:06:28.845Z,82.04
2018-05-02T06:07:28.825Z,82.04
2018-05-02T06:08:28.807Z,81.37
2018-05-02T06:09:28.788Z,81.37
2018-05-02T06:10:28.769Z,81.09
2018-05-02T06:11:28.750Z,80.52
2018-05-02T06:12:28.731Z,79.89
2018-05-02T06:13:28.711Z,79.70
2018-05-02T06:14:28.693Z,78.99
2018-05-02T06:15:28.680Z,79.13
2018-05-02T06:16:28.659Z,79.22
2018-05-02T06:17:28.644Z,78.75
2018-05-02T06:18:28.621Z,77.80
2018-05-02T06:19:28.600Z,77.80
2018-05-02T06:20:28.583Z,76.65
2018-05-02T06:21:28.564Z,76.75
2018-05-02T06:22:28.546Z,77.32
2018-05-02T06:23:28.533Z,77.42
2018-05-02T06:24:28.513Z,76.12
2018-05-02T06:25:28.492Z,75.64
2018-05-02T06:26:28.476Z,74.69
2018-05-02T06:27:28.466Z,73.65
2018-05-02T06:28:28.438Z,72.88
2018-05-02T06:29:28.424Z,72.41
2018-05-02T06:30:28.402Z,72.02
2018-05-02T06:31:28.386Z,71.93
2018-05-02T06:32:28.370Z,72.53
2018-05-02T06:33:28.352Z,72.63
2018-05-02T06:34:28.336Z,71.77
2018-05-02T06:35:28.319Z,71.39
2018-05-02T06:36:28.300Z,70.92
2018-05-02T06:37:28.281Z,71.01
2018-05-02T06:38:28.266Z,70.63
2018-05-02T06:39:28.246Z,69.58
2018-05-02T06:40:28.230Z,69.58
2018-05-02T06:41:28.219Z,69.62
2018-05-02T06:42:28.195Z,68.57
2018-05-02T06:43:28.194Z,68.57
2018-05-02T06:44:28.159Z,67.52
2018-05-02T06:45:28.145Z,67.71
2018-05-02T06:46:28.131Z,67.90
2018-05-02T06:47:28.111Z,66.22
2018-05-02T06:48:28.100Z,64.31
2018-05-02T06:49:28.080Z,64.88
2018-05-02T06:50:28.065Z,64.50
2018-05-02T06:51:28.045Z,62.68
2018-05-02T06:52:28.029Z,63.16
2018-05-02T06:53:28.009Z,63.26
2018-05-02T06:54:27.993Z,63.83
2018-05-02T06:55:27.979Z,63.39
2018-05-02T06:56:27.963Z,63.76
2018-05-02T06:57:27.946Z,63.00
2018-05-02T06:58:27.926Z,62.34
2018-05-02T06:59:27.916Z,62.24
2018-05-02T07:00:27.897Z,62.55
2018-05-02T07:01:27.880Z,62.18
2018-05-02T07:02:27.865Z,61.60
2018-05-02T07:03:27.849Z,59.69
2018-05-02T07:04:27.835Z,58.38
2018-05-02T07:05:27.821Z,58.19
2018-05-02T07:06:27.802Z,59.15
2018-05-02T07:07:27.788Z,58.48
2018-05-02T07:08:27.771Z,58.41
2018-05-02T07:09:27.756Z,56.98
2018-05-02T07:10:27.742Z,56.79
2018-05-02T07:11:27.723Z,54.97
2018-05-02T07:12:27.709Z,54.97
2018-05-02T07:13:27.782Z,54.71
2018-05-02T07:14:27.681Z,54.61
2018-05-02T07:15:27.664Z,53.08
2018-05-02T07:16:27.651Z,53.18
2018-05-02T07:17:27.634Z,53.20
2018-05-02T07:18:27.621Z,52.92
2018-05-02T07:19:27.609Z,54.07
2018-05-02T07:20:27.592Z,53.62
2018-05-02T07:21:27.581Z,52.66
2018-05-02T07:22:27.566Z,50.93
2018-05-02T07:23:27.550Z,49.71
2018-05-02T07:24:27.535Z,49.81
2018-05-02T07:25:27.526Z,48.57
2018-05-02T07:26:27.511Z,47.15
2018-05-02T07:27:27.499Z,48.09
2018-05-02T07:28:27.483Z,48.11
2018-05-02T07:29:27.479Z,48.11
2018-05-02T07:30:27.462Z,48.21
2018-05-02T07:31:27.446Z,47.46
2018-05-02T07:32:27.484Z,47.17
2018-05-02T07:33:27.420Z,47.75
2018-05-02T07:34:27.410Z,46.70
2018-05-02T07:35:27.397Z,46.19
2018-05-02T07:36:27.384Z,47.56
2018-05-02T07:37:27.380Z,48.13
2018-05-02T07:38:27.361Z,48.52
2018-05-02T07:39:27.354Z,49.38
2018-05-02T07:40:27.340Z,49.41
2018-05-02T07:41:27.329Z,48.16
2018-05-02T07:42:27.315Z,44.90
2018-05-02T07:43:27.304Z,45.18
2018-05-02T07:44:27.296Z,45.95
2018-05-02T07:45:27.287Z,46.62
2018-05-02T07:46:27.281Z,45.67
2018-05-02T07:47:27.263Z,44.92
2018-05-02T07:48:27.253Z,44.82
2018-05-02T07:49:27.243Z,44.15
2018-05-02T07:50:27.233Z,43.77
2018-05-02T07:51:27.223Z,43.48
2018-05-02T07:52:27.214Z,43.21
2018-05-02T07:53:27.215Z,42.35
2018-05-02T07:54:27.201Z,42.56
2018-05-02T07:55:27.240Z,41.50
2018-05-02T07:56:27.184Z,41.12
2018-05-02T07:57:27.166Z,40.93
2018-05-02T07:58:27.160Z,41.05
2018-05-02T07:59:27.146Z,40.95
2018-05-02T08:00:27.139Z,41.24
2018-05-02T08:01:27.129Z,39.53
2018-05-02T08:02:27.123Z,37.91
2018-05-02T08:03:27.113Z,37.72
2018-05-02T08:04:27.105Z,38.02
2018-05-02T08:05:27.098Z,38.04
2018-05-02T08:06:27.091Z,37.39
2018-05-02T08:07:27.089Z,37.29
2018-05-02T08:08:27.088Z,36.61
2018-05-02T08:09:27.069Z,36.43
2018-05-02T08:10:27.063Z,36.91
2018-05-02T08:11:27.056Z,37.02
2018-05-02T08:12:27.048Z,34.78
2018-05-02T08:13:27.044Z,34.67
2018-05-02T08:14:27.039Z,34.58
2018-05-02T08:15:27.031Z,34.38
2018-05-02T08:16:27.126Z,34.58
2018-05-02T08:17:27.019Z,35.16
2018-05-02T08:18:27.016Z,36.19
2018-05-02T08:19:27.008Z,36.21
2018-05-02T08:20:27.005Z,36.79
2018-05-02T08:21:26.999Z,35.44
2018-05-02T08:22:26.995Z,35.44
2018-05-02T08:23:26.987Z,34.37
2018-05-02T08:24:26.982Z,34.75
2018-05-02T08:25:26.980Z,34.86
2018-05-02T08:26:26.971Z,35.06
2018-05-02T08:27:26.966Z,35.42
2018-05-02T08:28:26.965Z,34.56
2018-05-02T08:29:26.959Z,34.66
2018-05-02T08:30:26.953Z,35.04
2018-05-02T08:31:26.948Z,34.56
2018-05-02T08:32:26.954Z,34.29
2018-05-02T08:33:26.939Z,33.73
2018-05-02T08:34:26.935Z,32.76
2018-05-02T08:35:26.930Z,33.05
2018-05-02T08:36:26.925Z,33.05
2018-05-02T08:37:26.930Z,31.52
2018-05-02T08:38:26.918Z,32.09
2018-05-02T08:39:26.912Z,33.34
2018-05-02T08:40:26.920Z,33.73
2018-05-02T08:41:26.910Z,33.34
2018-05-02T08:42:26.901Z,32.57
2018-05-02T08:43:26.896Z,32.76
2018-05-02T08:44:26.895Z,33.82
2018-05-02T08:45:26.891Z,33.71
2018-05-02T08:46:26.888Z,34.08
2018-05-02T08:47:26.882Z,34.27
2018-05-02T08:48:26.877Z,33.48
2018-05-02T08:49:26.882Z,34.74
2018-05-02T08:50:26.869Z,32.90
2018-05-02T08:51:26.865Z,32.89
2018-05-02T08:52:26.861Z,32.78
2018-05-02T08:53:26.862Z,33.44
2018-05-02T08:54:26.854Z,35.45
2018-05-02T08:55:26.851Z,34.47
2018-05-02T08:56:26.840Z,34.55
2018-05-02T08:57:26.853Z,33.88
2018-05-02T08:58:26.834Z,35.99
2018-05-02T08:59:26.828Z,38.59
2018-05-02T09:00:26.816Z,39.06
2018-05-02T09:01:26.814Z,38.18
2018-05-02T09:02:26.817Z,37.22
2018-05-02T09:03:26.797Z,36.74
2018-05-02T09:04:26.795Z,38.56
2018-05-02T09:05:26.788Z,37.89
2018-05-02T09:06:26.778Z,37.70
2018-05-02T09:07:26.775Z,39.53
2018-05-02T09:08:26.769Z,38.54
2018-05-02T09:09:26.755Z,38.83
2018-05-02T09:10:26.748Z,39.41
2018-05-02T09:11:26.739Z,38.45
2018-05-02T09:12:26.759Z,38.83
2018-05-02T09:13:26.728Z,39.79
2018-05-02T09:14:26.715Z,40.06
2018-05-02T09:15:26.753Z,39.29
2018-05-02T09:16:26.699Z,39.39
2018-05-02T09:17:26.687Z,39.58
2018-05-02T09:18:26.681Z,39.94
2018-05-02T09:19:26.676Z,41.67
2018-05-02T09:20:26.662Z,41.96
2018-05-02T09:21:26.656Z,41.86
2018-05-02T09:22:26.647Z,40.71
2018-05-02T09:23:26.636Z,41.19
2018-05-02T09:24:26.624Z,41.77
2018-05-02T09:25:26.619Z,42.44
2018-05-02T09:26:26.605Z,42.05
2018-05-02T09:27:26.593Z,42.24
2018-05-02T09:28:26.580Z,43.01
2018-05-02T09:29:26.574Z,43.77
2018-05-02T09:30:26.565Z,44.06
2018-05-02T09:31:26.568Z,43.87
2018-05-02T09:32:26.544Z,43.30
2018-05-02T09:33:26.530Z,43.87
2018-05-02T09:34:26.519Z,43.77
2018-05-02T09:35:26.509Z,43.87
2018-05-02T09:36:26.495Z,43.87
2018-05-02T09:37:26.485Z,44.45
2018-05-02T09:38:26.475Z,43.77
2018-05-02T09:39:26.463Z,43.68
2018-05-02T09:40:26.452Z,43.87
2018-05-02T09:41:26.441Z,44.45
2018-05-02T09:42:26.430Z,44.90
2018-05-02T09:43:26.420Z,46.15
2018-05-02T09:44:26.407Z,46.15
2018-05-02T09:45:26.400Z,44.33
2018-05-02T09:46:26.388Z,43.66
2018-05-02T09:47:26.373Z,43.95
2018-05-02T09:48:26.360Z,44.90
2018-05-02T09:49:26.349Z,44.90
2018-05-02T09:50:26.339Z,45.29
2018-05-02T09:51:26.325Z,46.44
2018-05-02T09:52:26.315Z,48.44
2018-05-02T09:53:26.306Z,47.11
2018-05-02T09:54:26.294Z,47.61
2018-05-02T09:55:26.276Z,48.09
2018-05-02T09:56:26.275Z,46.55
2018-05-02T09:57:26.253Z,46.75
2018-05-02T09:58:26.242Z,48.47
2018-05-02T09:59:26.235Z,47.03
2018-05-02T10:00:26.218Z,47.99
2018-05-02T10:01:26.211Z,46.65
2018-05-02T10:02:26.199Z,46.55
2018-05-02T10:03:26.186Z,46.46
2018-05-02T10:04:26.190Z,46.26
2018-05-02T10:05:26.160Z,46.36
2018-05-02T10:06:26.148Z,46.91
2018-05-02T10:07:26.134Z,46.34
2018-05-02T10:08:26.125Z,46.53
2018-05-02T10:09:26.110Z,47.97
2018-05-02T10:10:26.099Z,48.54
2018-05-02T10:11:26.140Z,48.83
2018-05-02T10:12:26.097Z,49.02
2018-05-02T10:13:26.065Z,49.11
2018-05-02T10:14:26.049Z,49.98
2018-05-02T10:15:26.038Z,47.97
2018-05-02T10:16:26.037Z,48.07
2018-05-02T10:17:26.020Z,48.73
2018-05-02T10:18:26.104Z,49.31
2018-05-02T10:19:25.987Z,50.07
2018-05-02T10:20:25.978Z,49.98
2018-05-02T10:21:25.968Z,49.31
2018-05-02T10:22:26.001Z,49.69
2018-05-02T10:23:25.943Z,49.31
2018-05-02T10:24:25.933Z,49.98
2018-05-02T10:25:25.913Z,49.21
2018-05-02T10:26:25.902Z,49.21
2018-05-02T10:27:25.889Z,48.93
2018-05-02T10:28:25.880Z,48.16
2018-05-02T10:29:25.880Z,48.16
2018-05-02T10:30:25.861Z,49.31
2018-05-02T10:31:25.890Z,49.21
2018-05-02T10:32:25.827Z,49.40
2018-05-02T10:33:25.813Z,48.73
2018-05-02T10:34:25.804Z,48.35
2018-05-02T10:35:25.791Z,48.64
2018-05-02T10:36:25.776Z,48.25
2018-05-02T10:37:25.760Z,48.64
2018-05-02T10:38:25.752Z,48.93
2018-05-02T10:39:25.736Z,47.97
2018-05-02T10:40:25.724Z,46.62
2018-05-02T10:41:25.713Z,47.11
2018-05-02T10:42:25.698Z,46.72
2018-05-02T10:43:25.683Z,46.82
2018-05-02T10:44:25.673Z,46.62
2018-05-02T10:45:25.666Z,46.82
2018-05-02T10:46:25.652Z,48.16
2018-05-02T10:47:25.632Z,48.35
2018-05-02T10:48:25.629Z,47.68
2018-05-02T10:49:25.609Z,48.07
2018-05-02T10:50:25.670Z,46.82
2018-05-02T10:51:25.583Z,46.82
2018-05-02T10:52:25.567Z,48.44
2018-05-02T10:53:25.561Z,48.83
2018-05-02T10:54:25.545Z,48.35
2018-05-02T10:55:25.536Z,48.44
2018-05-02T10:56:25.530Z,48.16
2018-05-02T10:57:25.506Z,48.07
2018-05-02T10:58:25.498Z,48.25
2018-05-02T10:59:25.480Z,48.54
2018-05-02T11:00:25.466Z,49.40
2018-05-02T11:01:25.466Z,48.93
2018-05-02T11:02:25.444Z,48.44
2018-05-02T11:03:25.427Z,48.44
2018-05-02T11:04:25.419Z,47.85
2018-05-02T11:05:25.403Z,48.07
2018-05-02T11:06:25.393Z,48.42
2018-05-02T11:07:25.379Z,48.23
2018-05-02T11:08:25.386Z,48.13
2018-05-02T11:09:25.349Z,48.04
2018-05-02T11:10:25.338Z,48.13
2018-05-02T11:11:25.324Z,48.04
2018-05-02T11:12:25.309Z,47.66
2018-05-02T11:13:25.297Z,48.33
2018-05-02T11:14:25.327Z,49.19
2018-05-02T11:15:25.270Z,49.09
2018-05-02T11:16:25.265Z,48.52
2018-05-02T11:17:25.246Z,49.09
2018-05-02T11:18:25.240Z,48.80
2018-05-02T11:19:25.218Z,48.52
2018-05-02T11:20:25.205Z,49.66
2018-05-02T11:21:25.191Z,49.95
2018-05-02T11:22:25.181Z,50.72
2018-05-02T11:23:25.163Z,50.34
2018-05-02T11:24:25.150Z,51.77
2018-05-02T11:25:25.159Z,52.15
2018-05-02T11:26:25.127Z,51.48
2018-05-02T11:27:25.112Z,51.58
2018-05-02T11:28:25.192Z,51.70
2018-05-02T11:29:25.106Z,52.56
2018-05-02T11:30:25.073Z,51.48
2018-05-02T11:31:25.060Z,50.05
2018-05-02T11:32:25.045Z,50.43
2018-05-02T11:33:25.038Z,50.05
2018-05-02T11:34:25.019Z,50.34
2018-05-02T11:35:25.003Z,51.01
2018-05-02T11:36:24.992Z,51.20
2018-05-02T11:37:24.981Z,52.32
2018-05-02T11:38:24.970Z,53.66
2018-05-02T11:39:24.950Z,54.07
2018-05-02T11:40:24.940Z,52.73
2018-05-02T11:41:24.924Z,52.54
2018-05-02T11:42:24.910Z,52.06
2018-05-02T11:43:24.896Z,52.63
2018-05-02T11:44:24.884Z,52.61
2018-05-02T11:45:24.872Z,52.54
2018-05-02T11:46:24.857Z,52.61
2018-05-02T11:47:24.840Z,52.80
2018-05-02T11:48:24.831Z,53.56
2018-05-02T11:49:24.821Z,53.85
2018-05-02T11:50:24.802Z,54.14
2018-05-02T11:51:24.787Z,54.52
2018-05-02T11:52:24.774Z,55.29
2018-05-02T11:53:24.762Z,55.47
2018-05-02T11:54:24.752Z,55.54
2018-05-02T11:55:24.731Z,57.39
2018-05-02T11:56:24.721Z,58.15
2018-05-02T11:57:24.706Z,58.98
2018-05-02T11:58:24.699Z,58.83
2018-05-02T11:59:24.683Z,59.59
2018-05-02T12:00:24.663Z,60.74
2018-05-02T12:01:24.649Z,59.49
2018-05-02T12:02:24.635Z,59.49
2018-05-02T12:03:24.703Z,59.78
2018-05-02T12:04:24.613Z,59.78
2018-05-02T12:05:24.593Z,59.11
2018-05-02T12:06:24.577Z,59.69
2018-05-02T12:07:24.564Z,60.93
2018-05-02T12:08:24.549Z,60.90
2018-05-02T12:09:24.536Z,61.28
2018-05-02T12:10:24.611Z,60.99
2018-05-02T12:11:24.510Z,61.28
2018-05-02T12:12:24.502Z,62.24
2018-05-02T12:13:24.479Z,62.71
2018-05-02T12:14:24.465Z,64.15
2018-05-02T12:15:24.450Z,65.11
2018-05-02T12:16:24.435Z,65.30
2018-05-02T12:17:24.440Z,63.76
2018-05-02T12:18:24.410Z,63.10
2018-05-02T12:19:24.394Z,63.96
2018-05-02T12:20:24.379Z,64.25
2018-05-02T12:21:24.365Z,64.15
2018-05-02T12:22:24.349Z,63.29
2018-05-02T12:23:24.339Z,63.86
2018-05-02T12:24:24.328Z,63.86
2018-05-02T12:25:24.317Z,64.15
2018-05-02T12:26:24.293Z,64.15
2018-05-02T12:27:24.280Z,64.62
2018-05-02T12:28:24.263Z,64.72
2018-05-02T12:29:24.251Z,63.86
2018-05-02T12:30:24.235Z,62.81
2018-05-02T12:31:24.221Z,62.62
2018-05-02T12:32:24.214Z,61.19
2018-05-02T12:33:24.193Z,59.27
2018-05-02T12:34:24.180Z,59.47
2018-05-02T12:35:24.237Z,59.56
2018-05-02T12:36:24.149Z,59.47
2018-05-02T12:37:24.135Z,58.89
2018-05-02T12:38:24.122Z,57.93
2018-05-02T12:39:24.110Z,58.32
2018-05-02T12:40:24.092Z,59.66
2018-05-02T12:41:24.079Z,59.47
2018-05-02T12:42:24.065Z,61.38
2018-05-02T12:43:24.048Z,60.42
2018-05-02T12:44:24.034Z,60.61
2018-05-02T12:45:24.022Z,60.55
2018-05-02T12:46:24.006Z,59.94
2018-05-02T12:47:23.991Z,59.97
2018-05-02T12:48:23.978Z,60.45
2018-05-02T12:49:23.964Z,59.69
2018-05-02T12:50:23.960Z,59.59
2018-05-02T12:51:23.933Z,59.01
2018-05-02T12:52:23.920Z,58.92